createdAt,value
2018-04-30T04:09:51.866Z,21.35
2018-04-30T04:12:19.406Z,21.55
2018-04-30T04:14:46.933Z,15.43
2018-04-30T04:17:14.463Z,13.85
2018-04-30T04:19:42.008Z,15.35
2018-04-30T04:22:10.329Z,15.85
2018-04-30T04:24:37.894Z,21.12
2018-04-30T04:27:05.480Z,16.17
2018-04-30T04:29:33.038Z,17.58
2018-04-30T04:32:00.572Z,25.35
2018-04-30T04:34:28.134Z,23.60
2018-04-30T04:36:55.661Z,14.43
2018-04-30T04:39:23.188Z,28.27
2018-04-30T04:41:50.718Z,17.10
2018-04-30T04:44:18.302Z,21.12
2018-04-30T04:46:45.875Z,34.17
2018-04-30T06:34:46.645Z,16.65
2018-04-30T06:37:15.544Z,17.70
2018-04-30T06:39:44.451Z,21.12
2018-04-30T06:42:13.334Z,19.42
2018-04-30T06:44:42.241Z,19.17
2018-04-30T08:33:41.405Z,21.60
2018-04-30T08:36:10.309Z,19.50
2018-04-30T09:18:14.642Z,24.60
2018-04-30T09:20:43.550Z,18.37
2018-04-30T09:23:12.436Z,10.53
2018-04-30T09:30:38.314Z,13.43
2018-04-30T09:33:07.197Z,23.43
2018-04-30T09:35:36.109Z,13.50
2018-04-30T09:38:05.026Z,20.97
2018-04-30T10:12:44.686Z,27.10
2018-04-30T10:15:12.258Z,22.27
2018-04-30T10:17:39.801Z,22.93
2018-04-30T10:20:07.361Z,22.50
2018-04-30T10:22:34.902Z,17.80
2018-04-30T10:25:03.217Z,27.53
2018-04-30T10:29:57.855Z,7.80
2018-04-30T10:32:25.383Z,8.70
2018-04-30T10:34:52.922Z,13.57
2018-04-30T10:37:21.241Z,9.03
2018-04-30T10:39:48.779Z,9.47
2018-04-30T10:42:16.344Z,4.90
2018-04-30T10:44:43.886Z,4.40
2018-04-30T10:47:12.191Z,8.73
2018-04-30T10:49:39.750Z,6.97
2018-04-30T10:52:07.338Z,10.53
2018-04-30T10:54:34.883Z,5.33
2018-04-30T10:57:02.418Z,10.27
2018-04-30T10:59:29.951Z,8.00
2018-04-30T11:01:57.520Z,3.40
2018-04-30T11:04:25.107Z,9.60
2018-04-30T11:06:52.645Z,4.90
2018-04-30T11:09:20.205Z,4.50
2018-04-30T11:11:47.812Z,3.25
2018-04-30T11:14:15.366Z,2.08
2018-04-30T11:16:43.693Z,1.92
2018-04-30T11:19:11.252Z,6.78
2018-04-30T11:21:38.798Z,2.25
2018-04-30T11:24:06.368Z,6.40
2018-04-30T11:26:33.934Z,3.60
2018-04-30T11:29:01.486Z,5.72
2018-04-30T11:31:29.054Z,8.38
2018-04-30T11:38:50.838Z,6.68
2018-04-30T11:41:18.471Z,3.37
2018-04-30T11:43:46.038Z,10.50
2018-04-30T11:46:14.369Z,5.95
2018-04-30T11:48:41.964Z,6.93
2018-04-30T11:51:10.321Z,1.48
2018-04-30T11:53:37.914Z,5.82
2018-04-30T11:56:06.280Z,5.78
2018-04-30T11:58:33.862Z,4.18
2018-04-30T12:01:02.174Z,5.62
2018-04-30T12:03:29.754Z,4.97
2018-04-30T12:05:57.326Z,6.85
2018-04-30T12:08:24.902Z,5.65
2018-04-30T12:13:20.341Z,2.67
2018-04-30T12:15:47.923Z,4.45
2018-04-30T12:18:15.499Z,8.23
2018-04-30T12:20:43.840Z,5.60
2018-04-30T12:23:12.191Z,3.90
2018-04-30T12:30:34.817Z,3.50
2018-04-30T12:33:02.375Z,4.15
2018-04-30T12:35:29.917Z,2.80
2018-04-30T12:37:57.467Z,3.05
2018-04-30T12:40:25.778Z,1.27
2018-04-30T12:42:53.367Z,5.07
2018-04-30T12:45:20.933Z,2.72
2018-04-30T12:47:48.511Z,1.00
2018-04-30T12:50:16.073Z,11.05
2018-04-30T12:52:43.634Z,4.70
2018-04-30T12:57:38.331Z,10.70
2018-04-30T13:00:05.882Z,2.55
2018-04-30T13:02:33.460Z,3.17
2018-04-30T13:05:01.019Z,2.10
2018-04-30T13:07:28.561Z,1.65
2018-04-30T13:09:56.107Z,5.90
2018-04-30T13:12:24.423Z,7.30
2018-04-30T13:14:51.973Z,8.73
2018-04-30T13:17:19.528Z,4.93
2018-04-30T13:19:47.839Z,8.77
2018-04-30T13:22:15.372Z,14.02
2018-04-30T13:24:43.698Z,2.65
2018-04-30T13:27:11.310Z,12.23
2018-04-30T13:29:39.639Z,4.68
2018-04-30T13:32:07.187Z,6.07
2018-04-30T13:34:34.751Z,12.00
2018-04-30T13:37:02.310Z,12.73
2018-04-30T13:39:29.873Z,4.70
2018-04-30T13:41:57.418Z,14.52
2018-04-30T13:44:25.718Z,2.17
2018-04-30T13:46:53.265Z,5.55
2018-04-30T13:49:21.561Z,10.82
2018-04-30T13:51:49.113Z,11.23
2018-04-30T13:54:16.683Z,10.70
2018-04-30T13:56:44.222Z,9.43
2018-04-30T13:59:11.778Z,19.00
2018-04-30T14:01:39.323Z,21.10
2018-04-30T14:04:06.878Z,5.72
2018-04-30T14:06:34.415Z,1.85
2018-04-30T14:09:01.961Z,4.28
2018-04-30T14:11:30.253Z,5.68
2018-04-30T14:13:57.814Z,10.63
2018-04-30T14:16:25.418Z,0.80
2018-04-30T14:18:52.963Z,3.22
2018-04-30T14:21:20.983Z,2.70
2018-04-30T14:23:48.543Z,1.10
2018-04-30T14:26:16.072Z,4.93
2018-04-30T14:28:43.642Z,2.28
2018-04-30T14:31:11.243Z,1.02
2018-04-30T14:33:38.793Z,3.30
2018-04-30T14:36:06.334Z,5.03
2018-04-30T14:38:33.871Z,3.33
2018-04-30T14:41:01.445Z,2.70
2018-04-30T14:43:29.023Z,1.95
2018-04-30T14:45:56.571Z,2.65
2018-04-30T14:48:24.103Z,1.00
2018-04-30T14:50:52.430Z,3.28
2018-04-30T14:53:19.970Z,4.37
2018-04-30T14:55:47.506Z,9.07
2018-04-30T14:58:15.810Z,8.93
2018-04-30T15:00:43.344Z,8.00
2018-04-30T15:03:10.900Z,3.25
2018-04-30T15:05:38.446Z,7.68
2018-04-30T15:08:06.013Z,7.93
2018-04-30T15:10:33.566Z,2.60
2018-04-30T15:13:01.097Z,4.62
2018-04-30T15:15:28.666Z,4.00
2018-04-30T15:17:56.209Z,6.30
2018-04-30T15:20:24.532Z,4.23
2018-04-30T15:22:52.080Z,17.25
2018-04-30T15:27:46.765Z,9.40
2018-04-30T15:37:35.674Z,12.27
2018-04-30T15:40:03.275Z,22.80
2018-04-30T15:42:30.866Z,32.03
2018-04-30T15:44:58.431Z,15.25
2018-04-30T15:47:25.992Z,14.32
2018-04-30T15:49:53.536Z,17.73
2018-04-30T15:52:21.101Z,21.67
2018-04-30T15:54:48.671Z,14.25
2018-04-30T15:57:16.255Z,17.92
2018-04-30T15:59:43.826Z,18.77
2018-04-30T16:02:11.425Z,26.62
2018-04-30T16:04:38.973Z,16.40
2018-04-30T16:07:06.507Z,9.43
2018-04-30T16:09:34.066Z,15.52
2018-04-30T16:12:01.637Z,10.75
2018-04-30T16:14:29.184Z,5.87
2018-04-30T16:16:56.716Z,20.12
2018-04-30T16:19:25.013Z,3.00
2018-04-30T16:21:53.349Z,4.28
2018-04-30T16:24:20.925Z,6.07
2018-04-30T16:26:48.464Z,5.05
2018-04-30T16:29:16.011Z,20.70
2018-04-30T16:31:43.537Z,5.65
2018-04-30T16:34:11.885Z,4.78
2018-04-30T16:36:39.437Z,17.15
2018-04-30T16:39:06.988Z,14.43
2018-04-30T16:41:34.527Z,10.80
2018-04-30T16:44:02.844Z,11.10
2018-04-30T16:46:30.381Z,10.63
2018-04-30T16:48:57.948Z,8.60
2018-04-30T16:51:25.526Z,4.55
2018-04-30T16:53:53.071Z,9.63
2018-04-30T16:56:20.657Z,6.43
2018-04-30T16:58:48.223Z,14.98
2018-04-30T17:01:15.790Z,37.13
2018-04-30T17:03:43.350Z,28.70
2018-04-30T17:06:10.889Z,36.75
2018-04-30T17:08:38.417Z,84.47
2018-04-30T17:11:05.994Z,62.62
2018-04-30T17:13:34.331Z,17.33
2018-04-30T17:16:01.875Z,15.88
2018-04-30T17:18:29.426Z,16.20
2018-04-30T17:20:56.981Z,21.95
2018-04-30T17:23:25.321Z,256.92
2018-04-30T17:25:52.877Z,129.43
2018-04-30T17:28:20.419Z,42.53
2018-04-30T17:30:47.944Z,43.13
2018-04-30T17:33:15.500Z,35.33
2018-04-30T17:35:43.065Z,20.70
2018-04-30T17:38:10.606Z,29.67
2018-04-30T17:40:38.222Z,91.03
2018-04-30T17:43:05.783Z,46.80
2018-04-30T17:45:34.167Z,111.07
2018-04-30T17:48:01.715Z,68.28
2018-04-30T17:50:30.077Z,143.05
2018-04-30T17:52:57.703Z,261.37
2018-04-30T17:55:25.282Z,190.43
2018-04-30T17:57:52.827Z,110.65
2018-04-30T18:00:20.362Z,106.80
2018-04-30T18:02:48.670Z,125.57
2018-04-30T18:05:16.263Z,83.10
2018-04-30T18:07:43.826Z,72.78
2018-04-30T18:10:11.404Z,60.17
2018-04-30T18:12:38.980Z,75.65
2018-04-30T18:15:06.528Z,69.85
2018-04-30T18:17:34.071Z,71.57
2018-04-30T18:20:01.612Z,44.47
2018-04-30T18:22:29.456Z,56.30
2018-04-30T18:24:57.767Z,53.90
2018-04-30T18:27:25.308Z,70.28
2018-04-30T18:29:53.649Z,62.83
2018-04-30T18:32:21.198Z,63.45
2018-04-30T18:34:48.738Z,74.10
2018-04-30T18:37:16.301Z,70.75
2018-04-30T18:39:43.870Z,81.40
2018-04-30T18:42:11.473Z,88.50
2018-04-30T18:44:39.038Z,106.15
2018-04-30T18:47:06.608Z,85.15
2018-04-30T18:49:34.160Z,92.43
2018-04-30T18:52:01.712Z,103.15
2018-04-30T18:54:29.251Z,162.73
2018-04-30T18:56:56.799Z,180.12
2018-04-30T18:59:25.135Z,171.93
2018-04-30T19:01:52.735Z,253.80
2018-04-30T19:04:21.041Z,255.62
2018-04-30T19:06:48.586Z,302.60
2018-04-30T19:09:16.912Z,379.63
2018-04-30T19:11:44.463Z,345.02
2018-04-30T19:14:12.066Z,278.62
2018-04-30T19:16:39.610Z,265.17
2018-04-30T19:19:07.197Z,223.02
2018-04-30T19:21:34.794Z,226.48
2018-04-30T19:24:03.124Z,207.77
2018-04-30T19:26:30.698Z,220.27
2018-04-30T19:28:58.239Z,198.20
2018-04-30T19:31:25.783Z,208.52
2018-04-30T19:33:53.458Z,188.12
2018-04-30T19:36:20.972Z,207.68
2018-04-30T19:38:48.540Z,235.40
2018-04-30T19:41:16.100Z,239.57
2018-04-30T19:43:43.649Z,263.50
2018-04-30T19:46:11.222Z,197.93
2018-04-30T19:48:38.766Z,168.32
2018-04-30T19:51:06.420Z,289.87
2018-04-30T19:53:34.022Z,466.30
2018-04-30T19:56:01.563Z,803.35
2018-04-30T19:58:29.118Z,585.87
2018-04-30T20:00:56.688Z,617.58
2018-04-30T20:03:24.290Z,554.30
2018-04-30T20:05:51.838Z,586.12
2018-04-30T20:08:19.390Z,603.90
2018-04-30T20:10:46.950Z,514.25
2018-04-30T20:13:14.522Z,410.02
2018-04-30T20:15:42.825Z,340.50
2018-04-30T20:18:10.370Z,343.00
2018-04-30T20:20:37.918Z,300.20
2018-04-30T20:23:05.476Z,282.40
2018-04-30T20:25:33.050Z,311.52
2018-04-30T20:28:00.658Z,335.27
2018-04-30T20:30:28.994Z,330.85
2018-04-30T20:32:56.542Z,288.42
2018-04-30T20:35:24.102Z,273.45
2018-04-30T20:37:51.675Z,226.18
2018-04-30T20:40:19.217Z,228.23
2018-04-30T20:42:46.801Z,236.60
2018-04-30T20:45:14.370Z,273.83
2018-04-30T20:47:41.923Z,223.18
2018-04-30T20:50:09.466Z,245.60
2018-04-30T20:52:37.774Z,261.65
2018-04-30T20:55:05.308Z,254.25
2018-04-30T20:57:33.625Z,246.87
2018-04-30T21:00:01.286Z,234.87
2018-04-30T21:02:28.776Z,235.07
2018-04-30T21:04:56.347Z,258.80
2018-04-30T21:07:23.917Z,221.87
2018-04-30T21:09:51.466Z,279.33
2018-04-30T21:12:19.005Z,302.83
2018-04-30T21:14:46.551Z,323.70
2018-04-30T21:17:14.129Z,463.08
2018-04-30T21:19:41.668Z,682.55
2018-04-30T21:22:09.979Z,578.55
2018-04-30T21:24:37.552Z,562.45
2018-04-30T21:27:05.119Z,514.95
2018-04-30T21:29:32.685Z,489.77
2018-04-30T21:32:00.235Z,565.10
2018-04-30T21:34:27.807Z,591.10
2018-04-30T21:36:55.359Z,542.12
2018-04-30T21:39:22.903Z,452.80
2018-04-30T21:41:50.438Z,378.48
2018-04-30T21:44:18.007Z,320.83
2018-04-30T21:46:45.553Z,363.75
2018-04-30T21:49:13.145Z,370.75
2018-04-30T21:51:41.456Z,374.42
2018-04-30T21:54:09.012Z,322.00
2018-04-30T21:56:36.588Z,325.92
2018-04-30T21:59:04.160Z,375.08
2018-04-30T22:01:31.723Z,376.98
2018-04-30T22:03:59.298Z,346.13
2018-04-30T22:06:26.849Z,330.10
2018-04-30T22:08:54.394Z,300.00
2018-04-30T22:11:22.726Z,289.20
2018-04-30T22:13:50.279Z,281.15
2018-04-30T22:16:17.857Z,296.42
2018-04-30T22:18:45.432Z,349.37
2018-04-30T22:21:12.997Z,384.30
2018-04-30T22:23:40.594Z,439.10
2018-04-30T22:26:08.147Z,464.00
2018-04-30T22:28:36.455Z,472.23
2018-04-30T22:31:04.008Z,446.35
2018-04-30T22:33:31.581Z,439.13
2018-04-30T22:35:59.138Z,373.38
2018-04-30T22:38:26.702Z,326.48
2018-04-30T22:40:54.275Z,290.35
2018-04-30T22:43:21.833Z,339.30
2018-04-30T22:45:49.388Z,327.70
2018-04-30T22:48:16.935Z,394.40
2018-04-30T22:50:45.282Z,380.23
2018-04-30T22:53:12.845Z,372.12
2018-04-30T22:55:41.165Z,320.85
2018-04-30T22:58:09.501Z,306.75
2018-04-30T23:00:37.054Z,299.15
2018-04-30T23:03:04.626Z,311.30
2018-04-30T23:05:32.170Z,302.27
2018-04-30T23:07:59.704Z,278.30
2018-04-30T23:10:28.038Z,278.73
2018-04-30T23:12:55.589Z,284.75
2018-04-30T23:15:23.135Z,266.98
2018-04-30T23:17:50.708Z,255.27
2018-04-30T23:20:18.375Z,250.48
2018-04-30T23:22:45.994Z,250.40
2018-04-30T23:25:13.535Z,285.13
2018-04-30T23:27:41.085Z,319.67
2018-04-30T23:30:08.618Z,327.35
2018-04-30T23:32:36.172Z,343.10
2018-04-30T23:35:04.514Z,376.50
2018-04-30T23:37:32.076Z,398.23
2018-04-30T23:39:59.614Z,408.87
2018-04-30T23:42:27.163Z,406.10
2018-04-30T23:44:54.731Z,371.83
2018-04-30T23:47:22.282Z,366.42
2018-04-30T23:49:49.827Z,380.87
2018-04-30T23:52:18.135Z,331.55
2018-04-30T23:54:45.720Z,298.62
2018-04-30T23:57:13.267Z,273.58
2018-04-30T23:59:40.810Z,302.30
